Anderson Dam, Idaho
Current Conditions -  °F | °C
As of 5:58 AM on Friday 19 Dec 2014 (Local Time) from KMUO Reporting Station
Overcast Overcast  
Wind Chill: 29°   Ceiling: 7000
Heat Index: 39°   Visibility: 10mi
Dew Point: 31°   Wind: 18mph
Humidity: 73%   Direction: 110°ESE
Pressure: 30.05"   Gusts: NA
Location:  43.2609°N, 115.781°W
Report Text: KMUO 191258Z AUTO 11016KT 10SM OVC070 04/M01 A3005 RMK AO2 SLP186 T00381007
Loading
Personal Weather Stations






























Interactive Weather Map New forecast layout! Learn more

10-Day Weather Forecast

Advertisements
Track Severe Weather on mobile